createdAt,value
2018-03-22T00:01:33.677Z,4.63
2018-03-22T00:04:07.711Z,3.10
2018-03-22T00:06:40.595Z,2.97
2018-03-22T00:09:13.886Z,4.27
2018-03-22T00:11:47.456Z,2.77
2018-03-22T00:14:20.463Z,2.83
2018-03-22T00:16:54.367Z,2.47
2018-03-22T00:19:27.723Z,2.50
2018-03-22T00:22:00.785Z,2.63
2018-03-22T00:24:34.129Z,2.47
2018-03-22T00:27:07.053Z,2.37
2018-03-22T00:29:40.092Z,2.50
2018-03-22T00:32:13.627Z,2.63
2018-03-22T00:34:46.935Z,2.20
2018-03-22T00:37:20.902Z,2.17
2018-03-22T00:39:53.948Z,2.60
2018-03-22T00:42:27.706Z,1.90
2018-03-22T00:45:00.981Z,2.10
2018-03-22T00:47:33.920Z,2.63
2018-03-22T00:50:07.423Z,3.63
2018-03-22T00:52:40.834Z,2.77
2018-03-22T00:55:13.868Z,2.03
2018-03-22T00:57:46.859Z,2.90
2018-03-22T01:00:22.292Z,3.00
2018-03-22T01:02:55.340Z,2.63
2018-03-22T01:05:28.359Z,2.77
2018-03-22T01:08:01.710Z,2.07
2018-03-22T01:10:34.795Z,2.50
2018-03-22T01:13:07.806Z,2.20
2018-03-22T01:15:41.135Z,2.40
2018-03-22T01:18:14.052Z,2.30
2018-03-22T01:20:47.096Z,2.50
2018-03-22T01:23:20.263Z,2.40
2018-03-22T01:25:53.689Z,3.07
2018-03-22T01:28:26.729Z,2.43
2018-03-22T01:30:59.777Z,1.97
2018-03-22T01:33:34.144Z,1.60
2018-03-22T01:36:07.339Z,1.70
2018-03-22T01:38:40.450Z,1.87
2018-03-22T01:41:13.553Z,2.30
2018-03-22T01:43:47.117Z,2.17
2018-03-22T01:46:20.090Z,1.93
2018-03-22T01:48:53.630Z,2.17
2018-03-22T01:54:09.848Z,2.20
2018-03-22T01:56:43.258Z,2.30
2018-03-22T01:59:16.172Z,2.37
2018-03-22T02:01:49.451Z,2.70
2018-03-22T02:04:22.384Z,2.27
2018-03-22T02:06:55.689Z,2.30
2018-03-22T02:09:30.498Z,2.43
2018-03-22T02:12:06.382Z,2.27
2018-03-22T02:14:39.431Z,2.30
2018-03-22T02:17:12.616Z,3.00
2018-03-22T02:19:45.908Z,1.97
2018-03-22T02:22:19.350Z,2.30
2018-03-22T02:24:52.513Z,2.80
2018-03-22T02:27:25.913Z,2.03
2018-03-22T02:29:59.226Z,2.90
2018-03-22T02:32:32.780Z,2.37
2018-03-22T02:35:06.118Z,2.67
2018-03-22T02:37:40.927Z,3.23
2018-03-22T02:40:14.813Z,2.43
2018-03-22T02:42:47.802Z,3.87
2018-03-22T02:45:21.125Z,2.90
2018-03-22T02:47:57.032Z,2.43
2018-03-22T02:50:35.718Z,2.40
2018-03-22T02:53:09.022Z,2.30
2018-03-22T02:55:42.281Z,2.63
2018-03-22T02:58:15.635Z,2.00
2018-03-22T03:00:49.428Z,2.80
2018-03-22T03:03:24.434Z,2.37
2018-03-22T03:05:58.272Z,3.83
2018-03-22T03:08:31.220Z,2.43
2018-03-22T03:11:04.518Z,4.03
2018-03-22T03:13:38.606Z,3.20
2018-03-22T03:16:11.608Z,2.20
2018-03-22T03:18:44.453Z,2.27
2018-03-22T03:21:18.005Z,2.20
2018-03-22T03:23:51.061Z,2.60
2018-03-22T03:26:24.466Z,2.50
2018-03-22T03:28:58.063Z,2.60
2018-03-22T03:31:31.089Z,2.47
2018-03-22T03:34:05.392Z,3.83
2018-03-22T03:36:41.295Z,2.93
2018-03-22T03:39:14.946Z,2.80
2018-03-22T03:41:48.722Z,2.87
2018-03-22T03:44:22.424Z,2.80
2018-03-22T03:46:55.838Z,2.97
2018-03-22T03:49:29.042Z,4.57
2018-03-22T03:52:03.115Z,2.80
2018-03-22T03:54:36.212Z,3.20
2018-03-22T03:57:09.555Z,3.33
2018-03-22T03:59:42.883Z,4.20
2018-03-22T04:02:16.902Z,2.70
2018-03-22T04:04:49.876Z,2.90
2018-03-22T04:07:23.245Z,3.43
2018-03-22T04:09:56.567Z,3.60
2018-03-22T04:12:29.870Z,3.70
2018-03-22T04:15:03.152Z,3.73
2018-03-22T04:17:36.162Z,3.70
2018-03-22T04:20:09.535Z,3.20
2018-03-22T04:22:42.954Z,3.23
2018-03-22T04:25:16.603Z,4.33
2018-03-22T04:27:49.629Z,4.63
2018-03-22T04:30:22.902Z,4.50
2018-03-22T04:32:55.873Z,4.83
2018-03-22T04:35:29.100Z,5.13
2018-03-22T04:38:02.119Z,6.40
2018-03-22T04:40:35.496Z,5.07
2018-03-22T04:43:08.978Z,6.03
2018-03-22T04:45:42.211Z,6.20
2018-03-22T04:48:15.857Z,5.93
2018-03-22T04:50:52.321Z,6.07
2018-03-22T04:53:25.618Z,6.23
2018-03-22T04:55:58.842Z,6.13
2018-03-22T04:58:32.234Z,6.50
2018-03-22T05:01:07.288Z,7.17
2018-03-22T05:03:40.555Z,7.37
2018-03-22T05:06:14.274Z,7.30
2018-03-22T05:08:47.670Z,6.50
2018-03-22T05:11:20.733Z,6.80
2018-03-22T05:13:54.175Z,5.30
2018-03-22T05:16:28.120Z,6.60
2018-03-22T05:19:01.239Z,7.03
2018-03-22T05:21:34.418Z,7.60
2018-03-22T05:24:07.426Z,9.33
2018-03-22T05:26:41.128Z,7.90
2018-03-22T05:29:14.592Z,7.07
2018-03-22T05:31:48.683Z,7.07
2018-03-22T05:34:21.898Z,8.00
2018-03-22T05:36:56.300Z,8.97
2018-03-22T05:39:29.779Z,6.93
2018-03-22T05:42:02.838Z,10.70
2018-03-22T05:44:36.551Z,8.43
2018-03-22T05:47:09.833Z,8.73
2018-03-22T05:49:43.356Z,8.87
2018-03-22T05:52:16.649Z,8.43
2018-03-22T05:54:50.428Z,7.93
2018-03-22T05:57:28.495Z,7.67
2018-03-22T06:00:03.186Z,8.33
2018-03-22T06:02:38.434Z,8.60
2018-03-22T06:05:12.950Z,7.33
2018-03-22T06:07:48.446Z,8.80
2018-03-22T06:10:24.169Z,7.60
2018-03-22T06:13:04.620Z,8.27
2018-03-22T06:15:42.851Z,8.33
2018-03-22T06:18:21.265Z,7.37
2018-03-22T06:20:55.749Z,7.90
2018-03-22T06:23:31.663Z,8.80
2018-03-22T06:26:05.078Z,6.53
2018-03-22T06:28:40.722Z,6.43
2018-03-22T06:31:15.335Z,6.80
2018-03-22T06:33:49.551Z,7.57
2018-03-22T06:36:23.972Z,6.37
2018-03-22T06:38:57.337Z,6.60
2018-03-22T06:41:30.579Z,6.83
2018-03-22T06:44:04.492Z,7.23
2018-03-22T06:46:38.186Z,8.50
2018-03-22T06:49:11.165Z,6.70
2018-03-22T06:51:45.017Z,7.60
2018-03-22T06:54:19.279Z,6.67
2018-03-22T06:56:53.602Z,7.23
2018-03-22T06:59:27.456Z,13.40
2018-03-22T07:02:01.236Z,7.40
2018-03-22T07:04:35.632Z,6.67
2018-03-22T07:07:10.712Z,8.07
2018-03-22T07:09:46.457Z,7.03
2018-03-22T07:12:19.513Z,7.17
2018-03-22T07:14:53.127Z,7.83
2018-03-22T07:17:26.930Z,10.47
2018-03-22T07:20:00.249Z,9.30
2018-03-22T07:22:33.705Z,9.37
2018-03-22T07:25:08.108Z,9.17
2018-03-22T07:27:43.740Z,8.03
2018-03-22T07:30:18.176Z,9.70
2018-03-22T07:32:53.293Z,12.53
2018-03-22T07:35:27.678Z,10.23
2018-03-22T07:38:03.848Z,10.97
2018-03-22T07:40:43.983Z,10.23
2018-03-22T07:43:21.622Z,10.50
2018-03-22T07:45:55.352Z,13.57
2018-03-22T07:48:28.936Z,10.97
2018-03-22T07:51:02.330Z,11.70
2018-03-22T07:53:38.051Z,11.40
2018-03-22T07:56:11.815Z,11.87
2018-03-22T07:58:45.344Z,10.97
2018-03-22T08:01:18.735Z,10.47
2018-03-22T08:03:52.734Z,10.30
2018-03-22T08:06:26.128Z,10.60
2018-03-22T08:09:00.248Z,11.33
2018-03-22T08:11:34.946Z,11.03
2018-03-22T08:14:08.042Z,9.80
2018-03-22T08:16:41.654Z,11.33
2018-03-22T08:19:15.522Z,10.17
2018-03-22T08:21:48.850Z,10.50
2018-03-22T08:24:21.978Z,10.20
2018-03-22T08:26:58.037Z,12.73
2018-03-22T08:29:31.217Z,10.30
2018-03-22T08:32:06.316Z,11.30
2018-03-22T08:34:39.498Z,9.17
2018-03-22T08:37:22.482Z,10.97
2018-03-22T08:39:57.284Z,10.13
2018-03-22T08:42:30.454Z,9.97
2018-03-22T08:45:03.622Z,10.33
2018-03-22T08:47:40.423Z,12.27
2018-03-22T08:50:14.446Z,11.00
2018-03-22T08:52:48.226Z,11.57
2018-03-22T08:55:21.989Z,12.50
2018-03-22T08:57:56.315Z,12.97
2018-03-22T09:00:30.019Z,12.57
2018-03-22T09:03:03.275Z,14.13
2018-03-22T09:05:40.076Z,13.50
2018-03-22T09:08:17.366Z,13.10
2018-03-22T09:10:50.516Z,13.33
2018-03-22T09:13:23.855Z,14.20
2018-03-22T09:15:57.827Z,14.23
2018-03-22T09:18:31.401Z,13.90
2018-03-22T09:21:04.765Z,13.50
2018-03-22T09:23:38.037Z,13.83
2018-03-22T09:26:11.457Z,14.87
2018-03-22T09:28:45.062Z,13.53
2018-03-22T09:31:19.159Z,16.40
2018-03-22T09:33:52.924Z,13.70
2018-03-22T09:36:26.990Z,15.77
2018-03-22T09:39:03.983Z,13.53
2018-03-22T09:41:38.173Z,13.90
2018-03-22T09:44:11.831Z,14.77
2018-03-22T09:46:46.035Z,14.60
2018-03-22T09:49:19.058Z,14.13
2018-03-22T09:51:52.250Z,13.67
2018-03-22T09:54:25.992Z,12.30
2018-03-22T09:57:00.010Z,12.23
2018-03-22T09:59:34.431Z,12.33
2018-03-22T10:02:08.090Z,13.60
2018-03-22T10:04:41.301Z,12.67
2018-03-22T10:07:15.239Z,13.20
2018-03-22T10:09:49.070Z,14.10
2018-03-22T10:12:22.622Z,13.13
2018-03-22T10:14:57.710Z,11.63
2018-03-22T10:17:31.371Z,14.00
2018-03-22T10:20:06.251Z,13.13
2018-03-22T10:22:40.810Z,12.13
2018-03-22T10:25:14.385Z,12.90
2018-03-22T10:27:49.431Z,12.47
2018-03-22T10:30:22.722Z,13.00
2018-03-22T10:32:56.732Z,12.70
2018-03-22T10:35:33.289Z,12.80
2018-03-22T10:38:08.064Z,14.03
2018-03-22T10:40:45.131Z,12.23
2018-03-22T10:43:18.480Z,11.83
2018-03-22T10:45:53.198Z,12.50
2018-03-22T10:48:26.371Z,13.47
2018-03-22T10:51:00.270Z,12.40
2018-03-22T10:53:34.139Z,13.17
2018-03-22T10:56:07.398Z,12.70
2018-03-22T10:58:42.715Z,12.40
2018-03-22T11:01:23.993Z,12.47
2018-03-22T11:03:57.408Z,12.03
2018-03-22T11:06:31.675Z,11.67
2018-03-22T11:09:05.236Z,13.87
2018-03-22T11:11:38.363Z,11.73
2018-03-22T11:16:51.865Z,11.83
2018-03-22T11:19:26.516Z,12.67
2018-03-22T11:21:59.855Z,11.83
2018-03-22T11:24:33.850Z,12.43
2018-03-22T11:27:08.790Z,11.60
2018-03-22T11:29:42.045Z,12.13
2018-03-22T11:32:17.009Z,12.57
2018-03-22T11:34:50.276Z,11.53
2018-03-22T11:37:24.938Z,11.53
2018-03-22T11:39:59.319Z,12.97
2018-03-22T11:45:10.133Z,13.20
2018-03-22T11:47:45.388Z,11.90
2018-03-22T11:50:19.901Z,13.63
2018-03-22T11:52:58.868Z,12.33
2018-03-22T11:55:32.722Z,12.07
2018-03-22T11:58:07.628Z,12.30
2018-03-22T12:00:42.505Z,12.40
2018-03-22T12:03:18.164Z,12.60
2018-03-22T12:05:54.642Z,13.30
2018-03-22T12:08:29.683Z,15.03
2018-03-22T12:11:08.130Z,14.03
2018-03-22T12:13:43.277Z,13.60
2018-03-22T12:16:16.807Z,13.87
2018-03-22T12:18:50.455Z,13.83
2018-03-22T12:21:25.236Z,13.80
2018-03-22T12:24:04.478Z,14.07
2018-03-22T12:26:37.726Z,13.57
2018-03-22T12:29:11.517Z,13.00
2018-03-22T12:31:54.553Z,12.97
2018-03-22T12:34:27.972Z,15.17
2018-03-22T12:37:07.298Z,13.73
2018-03-22T12:39:46.929Z,13.07
2018-03-22T12:42:23.270Z,13.30
2018-03-22T12:44:58.131Z,14.37
2018-03-22T12:47:34.456Z,14.50
2018-03-22T12:50:12.873Z,14.30
2018-03-22T12:52:50.170Z,14.47
2018-03-22T12:55:25.844Z,13.57
2018-03-22T12:58:02.228Z,16.27
2018-03-22T13:00:37.942Z,13.70
2018-03-22T13:03:11.545Z,13.60
2018-03-22T13:05:46.802Z,14.63
2018-03-22T13:08:19.958Z,14.60
2018-03-22T13:10:55.768Z,14.17
2018-03-22T13:13:33.016Z,14.60
2018-03-22T13:16:08.308Z,13.63
2018-03-22T13:18:42.549Z,13.67
2018-03-22T13:21:16.374Z,13.50
2018-03-22T13:23:51.126Z,14.23
2018-03-22T13:26:24.987Z,13.93
2018-03-22T13:29:00.604Z,14.53
2018-03-22T13:31:37.891Z,13.37
2018-03-22T13:35:14.000Z,13.60
2018-03-22T13:37:48.742Z,13.83
2018-03-22T13:40:24.115Z,13.07
2018-03-22T13:42:58.278Z,11.90
2018-03-22T13:45:32.093Z,11.97
2018-03-22T13:48:15.536Z,11.87
2018-03-22T13:50:49.982Z,12.77
2018-03-22T13:53:23.500Z,12.97
2018-03-22T13:55:57.169Z,12.10
2018-03-22T13:58:30.947Z,13.13
2018-03-22T14:01:14.863Z,11.80
2018-03-22T14:03:49.107Z,12.20
2018-03-22T14:06:22.775Z,12.43
2018-03-22T14:08:57.098Z,11.23
2018-03-22T14:11:30.897Z,12.10
2018-03-22T14:14:05.937Z,11.50
2018-03-22T14:16:39.429Z,11.37
2018-03-22T14:19:12.990Z,11.83
2018-03-22T14:21:47.361Z,11.27
2018-03-22T14:24:21.210Z,11.80
2018-03-22T14:26:54.553Z,11.10
2018-03-22T14:29:27.699Z,10.40
2018-03-22T14:32:01.440Z,11.17
2018-03-22T14:34:37.312Z,11.30
2018-03-22T14:37:11.093Z,11.33
2018-03-22T14:39:44.328Z,10.80
2018-03-22T14:42:17.869Z,11.67
2018-03-22T14:44:51.005Z,11.43
2018-03-22T14:47:24.128Z,11.87
2018-03-22T14:49:58.685Z,10.70
2018-03-22T14:52:32.665Z,11.33
2018-03-22T14:55:06.984Z,11.20
2018-03-22T14:57:41.456Z,11.47
2018-03-22T15:00:16.003Z,11.20
2018-03-22T15:02:50.772Z,10.50
2018-03-22T15:05:25.705Z,11.37
2018-03-22T15:07:59.010Z,11.03
2018-03-22T15:10:32.211Z,11.23
2018-03-22T15:13:07.264Z,12.30
2018-03-22T15:15:44.961Z,11.03
2018-03-22T15:18:21.638Z,11.73
2018-03-22T15:20:56.520Z,11.37
2018-03-22T15:23:30.204Z,11.27
2018-03-22T15:26:05.313Z,10.87
2018-03-22T15:28:40.268Z,9.33
2018-03-22T15:31:14.911Z,11.07
2018-03-22T15:33:52.032Z,10.80
2018-03-22T15:36:37.241Z,10.13
2018-03-22T15:39:11.344Z,10.43
2018-03-22T15:41:45.524Z,10.10
2018-03-22T15:44:18.499Z,10.10
2018-03-22T15:46:51.578Z,10.20
2018-03-22T15:49:26.119Z,10.83
2018-03-22T15:51:59.527Z,10.70
2018-03-22T15:54:32.720Z,11.00
2018-03-22T15:57:06.765Z,9.30
2018-03-22T15:59:40.443Z,9.77
2018-03-22T16:02:15.253Z,9.50
2018-03-22T16:04:50.538Z,9.83
2018-03-22T16:07:23.672Z,9.20
2018-03-22T16:09:57.179Z,9.40
2018-03-22T16:12:31.547Z,9.70
2018-03-22T16:15:05.409Z,8.97
2018-03-22T16:17:38.961Z,8.60
2018-03-22T16:20:13.198Z,9.80
2018-03-22T16:22:47.038Z,9.37
2018-03-22T16:25:21.221Z,9.87
2018-03-22T16:27:54.818Z,9.37
2018-03-22T16:30:28.210Z,9.80
2018-03-22T16:33:01.648Z,9.23
2018-03-22T16:35:35.334Z,9.30
2018-03-22T16:38:08.393Z,10.03
2018-03-22T16:40:43.111Z,9.20
2018-03-22T16:43:17.025Z,9.43
2018-03-22T16:45:50.744Z,9.10
2018-03-22T16:48:25.077Z,10.07
2018-03-22T16:50:58.666Z,9.57
2018-03-22T16:53:33.533Z,9.50
2018-03-22T16:56:09.532Z,10.27
2018-03-22T16:58:44.232Z,9.87
2018-03-22T17:01:18.417Z,9.57
2018-03-22T17:03:52.543Z,9.20
2018-03-22T17:06:26.711Z,9.13
2018-03-22T17:09:00.210Z,9.10
2018-03-22T17:11:34.595Z,9.17
2018-03-22T17:14:24.720Z,9.77
2018-03-22T17:17:06.945Z,11.03
2018-03-22T17:19:41.945Z,8.43
2018-03-22T17:22:15.557Z,9.47
2018-03-22T17:24:49.272Z,8.97
2018-03-22T17:27:22.701Z,9.57
2018-03-22T17:29:56.331Z,8.77
2018-03-22T17:32:29.369Z,9.80
2018-03-22T17:35:03.058Z,13.13
2018-03-22T17:37:36.347Z,10.10
2018-03-22T17:40:09.673Z,9.70
2018-03-22T17:42:43.044Z,9.67
2018-03-22T17:45:18.466Z,10.00
2018-03-22T17:47:52.454Z,11.10
2018-03-22T17:50:27.242Z,11.33
2018-03-22T17:53:00.911Z,10.70
2018-03-22T17:55:35.053Z,10.93
2018-03-22T17:58:08.896Z,11.43
2018-03-22T18:00:42.862Z,11.00
2018-03-22T18:03:17.630Z,11.13
2018-03-22T18:05:51.263Z,11.00
2018-03-22T18:08:25.776Z,11.20
2018-03-22T18:11:00.447Z,10.27
2018-03-22T18:13:33.777Z,11.83
2018-03-22T18:16:07.289Z,10.73
2018-03-22T18:18:40.470Z,10.80
2018-03-22T18:21:13.549Z,10.63
2018-03-22T18:23:46.992Z,10.37
2018-03-22T18:26:20.433Z,10.10
2018-03-22T18:28:54.796Z,10.93
2018-03-22T18:31:28.309Z,11.07
2018-03-22T18:34:01.942Z,10.30
2018-03-22T18:36:35.991Z,10.37
2018-03-22T18:39:09.712Z,10.17
2018-03-22T18:41:42.976Z,11.03
2018-03-22T18:44:16.761Z,10.53
2018-03-22T18:46:50.165Z,10.13
2018-03-22T18:49:23.543Z,10.90
2018-03-22T18:51:57.558Z,10.33
2018-03-22T18:54:31.218Z,9.50
2018-03-22T18:57:04.965Z,10.97
2018-03-22T18:59:50.122Z,11.50
2018-03-22T19:02:23.575Z,10.90
2018-03-22T19:04:57.432Z,10.87
2018-03-22T19:07:31.101Z,11.53
2018-03-22T19:10:04.339Z,11.50
2018-03-22T19:12:38.222Z,10.83
2018-03-22T19:15:12.459Z,10.60
2018-03-22T19:17:46.683Z,11.53
2018-03-22T19:20:20.542Z,11.30
2018-03-22T19:22:53.961Z,10.53
2018-03-22T19:25:27.920Z,11.10
2018-03-22T19:28:02.079Z,9.70
2018-03-22T19:30:37.798Z,10.07
2018-03-22T19:33:14.804Z,10.17
2018-03-22T19:35:48.937Z,11.03
2018-03-22T19:38:22.679Z,10.90
2018-03-22T19:40:58.124Z,9.83
2018-03-22T19:43:40.300Z,9.70
2018-03-22T19:46:17.962Z,9.43
2018-03-22T19:48:53.706Z,9.50
2018-03-22T19:51:27.288Z,9.67
2018-03-22T19:54:00.674Z,9.50
2018-03-22T19:56:37.348Z,11.37
2018-03-22T19:59:11.782Z,11.03
2018-03-22T20:01:46.076Z,11.03
2018-03-22T20:04:19.615Z,11.53
2018-03-22T20:06:58.249Z,11.60
2018-03-22T20:09:32.041Z,10.80
2018-03-22T20:12:06.095Z,10.97
2018-03-22T20:14:39.103Z,10.43
2018-03-22T20:17:12.557Z,11.00
2018-03-22T20:19:46.387Z,10.40
2018-03-22T20:22:19.858Z,11.13
2018-03-22T20:24:54.026Z,9.93
2018-03-22T20:27:27.941Z,10.77
2018-03-22T20:30:01.387Z,9.77
2018-03-22T20:32:34.721Z,10.47
2018-03-22T20:35:09.892Z,10.37
2018-03-22T20:37:43.056Z,9.77
2018-03-22T20:40:16.443Z,10.43
2018-03-22T20:42:50.260Z,9.67
2018-03-22T20:47:55.922Z,9.53
2018-03-22T20:50:29.164Z,9.10
2018-03-22T20:53:02.569Z,9.30
2018-03-22T20:55:36.275Z,8.83
2018-03-22T20:58:13.240Z,8.27
2018-03-22T21:00:50.894Z,9.10
2018-03-22T21:03:25.563Z,9.60
2018-03-22T21:06:00.062Z,9.80
2018-03-22T21:08:35.098Z,9.77
2018-03-22T21:11:08.339Z,10.10
2018-03-22T21:13:41.740Z,10.27
2018-03-22T21:16:15.737Z,9.40
2018-03-22T21:18:48.896Z,10.80
2018-03-22T21:21:22.157Z,11.57
2018-03-22T21:23:56.515Z,11.50
2018-03-22T21:26:29.558Z,10.73
2018-03-22T21:29:03.517Z,11.17
2018-03-22T21:31:37.487Z,10.50
2018-03-22T21:34:10.803Z,9.70
2018-03-22T21:36:46.854Z,10.27
2018-03-22T21:39:19.978Z,10.03
2018-03-22T21:42:02.101Z,10.23
2018-03-22T21:44:36.353Z,9.93
2018-03-22T21:47:18.428Z,9.70
2018-03-22T21:49:51.664Z,9.03
2018-03-22T21:52:45.884Z,9.13
2018-03-22T21:55:19.592Z,8.67
2018-03-22T21:57:52.750Z,9.23
2018-03-22T22:00:27.996Z,10.17
2018-03-22T22:03:01.470Z,11.20
2018-03-22T22:05:34.996Z,9.83
2018-03-22T22:08:08.172Z,9.57
2018-03-22T22:10:42.663Z,9.20
2018-03-22T22:13:16.359Z,8.80
2018-03-22T22:15:49.718Z,9.57
2018-03-22T22:18:24.875Z,9.33
2018-03-22T22:21:00.284Z,9.37
2018-03-22T22:23:33.433Z,9.07
2018-03-22T22:26:06.455Z,9.80
2018-03-22T22:28:39.752Z,10.87
2018-03-22T22:31:12.846Z,9.50
2018-03-22T22:33:46.860Z,9.60
2018-03-22T22:36:20.459Z,8.67
2018-03-22T22:38:53.393Z,10.03
2018-03-22T22:41:26.499Z,9.50
2018-03-22T22:43:59.537Z,10.00
2018-03-22T22:46:33.708Z,10.03
2018-03-22T22:49:06.787Z,9.37
2018-03-22T22:51:40.087Z,9.53
2018-03-22T22:54:13.054Z,8.70
2018-03-22T22:56:46.377Z,10.07
2018-03-22T22:59:19.681Z,9.20
2018-03-22T23:01:52.585Z,9.90
2018-03-22T23:04:26.240Z,9.83
2018-03-22T23:07:00.889Z,8.50
2018-03-22T23:09:34.827Z,9.03
2018-03-22T23:12:09.069Z,8.50
2018-03-22T23:14:42.974Z,8.30
2018-03-22T23:17:16.783Z,8.73
2018-03-22T23:19:50.238Z,9.87
2018-03-22T23:22:23.705Z,8.57
2018-03-22T23:24:56.776Z,9.10
2018-03-22T23:27:30.267Z,8.53
2018-03-22T23:30:04.053Z,9.43
2018-03-22T23:32:37.000Z,7.87
2018-03-22T23:35:10.291Z,8.57
2018-03-22T23:37:44.981Z,8.73
2018-03-22T23:40:18.032Z,8.70
2018-03-22T23:42:51.424Z,8.30
2018-03-22T23:45:24.747Z,9.53
2018-03-22T23:47:57.743Z,9.43
2018-03-22T23:50:31.190Z,9.50
2018-03-22T23:53:04.655Z,8.47
2018-03-22T23:55:37.547Z,10.03
2018-03-22T23:58:10.934Z,9.13
